createdAt,value
2018-09-03T00:01:40.504Z,16.10
2018-09-03T00:04:07.496Z,14.35
2018-09-03T00:06:34.572Z,16.93
2018-09-03T00:09:01.608Z,17.75
2018-09-03T00:11:28.626Z,14.75
2018-09-03T00:13:55.598Z,16.70
2018-09-03T00:16:22.654Z,16.50
2018-09-03T00:18:49.654Z,18.02
2018-09-03T00:21:16.770Z,16.20
2018-09-03T00:23:43.811Z,17.32
2018-09-03T00:26:11.324Z,17.98
2018-09-03T00:28:37.816Z,18.92
2018-09-03T00:31:10.541Z,19.15
2018-09-03T00:33:43.299Z,17.55
2018-09-03T00:36:16.211Z,18.52
2018-09-03T00:38:49.157Z,16.60
2018-09-03T00:41:22.460Z,16.07
2018-09-03T00:43:55.231Z,17.27
2018-09-03T00:46:27.915Z,18.05
2018-09-03T00:48:54.940Z,18.73
2018-09-03T00:51:21.968Z,15.93
2018-09-03T00:53:48.993Z,19.80
2018-09-03T00:56:16.047Z,17.12
2018-09-03T00:58:43.020Z,16.77
2018-09-03T01:01:10.058Z,17.35
2018-09-03T01:03:37.056Z,17.07
2018-09-03T01:06:04.531Z,16.77
2018-09-03T01:08:31.618Z,16.10
2018-09-03T01:10:58.663Z,18.15
2018-09-03T01:13:25.800Z,18.07
2018-09-03T01:15:52.811Z,17.30
2018-09-03T01:18:19.802Z,15.72
2018-09-03T01:20:47.355Z,18.02
2018-09-03T01:23:14.367Z,18.30
2018-09-03T01:25:41.407Z,17.62
2018-09-03T01:28:08.395Z,16.45
2018-09-03T01:30:35.401Z,16.67
2018-09-03T01:33:02.413Z,17.70
2018-09-03T01:35:29.432Z,17.62
2018-09-03T01:37:56.481Z,16.93
2018-09-03T01:40:23.463Z,16.00
2018-09-03T01:42:50.888Z,16.23
2018-09-03T01:45:17.918Z,16.95
2018-09-03T01:47:44.922Z,16.90
2018-09-03T01:50:11.950Z,16.37
2018-09-03T01:52:38.967Z,16.10
2018-09-03T01:55:05.978Z,16.23
2018-09-03T01:57:32.975Z,18.50
2018-09-03T01:59:59.990Z,17.02
2018-09-03T02:02:26.979Z,16.23
2018-09-03T02:04:53.943Z,15.47
2018-09-03T02:07:20.952Z,15.72
2018-09-03T02:09:47.939Z,16.80
2018-09-03T02:12:14.915Z,15.93
2018-09-03T02:14:43.131Z,15.60
2018-09-03T02:17:11.226Z,16.80
2018-09-03T02:19:38.211Z,19.27
2018-09-03T02:22:05.385Z,15.90
2018-09-03T02:24:32.431Z,15.03
2018-09-03T02:26:59.404Z,16.17
2018-09-03T02:29:26.410Z,17.70
2018-09-03T02:31:53.399Z,16.82
2018-09-03T02:34:20.386Z,15.90
2018-09-03T02:36:47.407Z,18.12
2018-09-03T02:39:14.383Z,15.25
2018-09-03T02:41:41.371Z,16.53
2018-09-03T02:44:08.812Z,16.42
2018-09-03T02:46:35.796Z,16.82
2018-09-03T02:49:02.776Z,18.67
2018-09-03T02:51:29.776Z,15.40
2018-09-03T02:53:56.764Z,16.50
2018-09-03T02:56:23.751Z,16.62
2018-09-03T02:58:50.739Z,17.15
2018-09-03T03:01:17.713Z,15.32
2018-09-03T03:03:44.679Z,15.40
2018-09-03T03:06:11.707Z,16.30
2018-09-03T03:08:38.744Z,16.37
2018-09-03T03:11:05.745Z,16.48
2018-09-03T03:13:32.761Z,16.50
2018-09-03T03:15:59.759Z,19.97
2018-09-03T03:18:26.741Z,17.87
2018-09-03T03:20:53.750Z,18.40
2018-09-03T03:23:20.715Z,16.87
2018-09-03T03:25:47.703Z,18.45
2018-09-03T03:28:14.718Z,17.77
2018-09-03T03:30:41.734Z,18.12
2018-09-03T03:33:08.739Z,18.50
2018-09-03T03:35:35.741Z,18.60
2018-09-03T03:38:02.723Z,22.13
2018-09-03T03:40:29.673Z,18.15
2018-09-03T03:42:56.680Z,19.67
2018-09-03T03:45:24.222Z,19.98
2018-09-03T03:47:51.197Z,19.07
2018-09-03T03:50:18.220Z,19.27
2018-09-03T03:52:45.183Z,21.30
2018-09-03T03:55:12.186Z,17.83
2018-09-03T03:57:39.112Z,18.27
2018-09-03T04:00:06.411Z,19.45
2018-09-03T04:02:33.399Z,19.15
2018-09-03T04:05:00.401Z,21.02
2018-09-03T04:07:27.377Z,18.47
2018-09-03T04:09:54.576Z,17.60
2018-09-03T04:12:21.556Z,15.03
2018-09-03T04:14:48.527Z,15.80
2018-09-03T04:17:15.508Z,17.57
2018-09-03T04:19:42.487Z,17.90
2018-09-03T04:22:09.439Z,17.65
2018-09-03T04:24:36.398Z,18.75
2018-09-03T04:27:03.367Z,16.95
2018-09-03T04:29:30.342Z,18.37
2018-09-03T04:31:57.315Z,17.57
2018-09-03T04:34:26.627Z,18.77
2018-09-03T04:36:52.915Z,18.92
2018-09-03T04:39:19.872Z,18.37
2018-09-03T04:41:46.838Z,19.87
2018-09-03T04:44:13.858Z,10.32
2018-09-03T04:46:41.156Z,9.73
2018-09-03T04:49:08.136Z,12.43
2018-09-03T04:51:35.097Z,45.20
2018-09-03T04:54:02.059Z,19.07
2018-09-03T04:56:29.035Z,13.00
2018-09-03T04:58:55.992Z,23.95
2018-09-03T05:01:22.966Z,42.17
2018-09-03T05:03:49.940Z,31.25
2018-09-03T05:06:16.907Z,36.08
2018-09-03T05:08:43.863Z,24.90
2018-09-03T05:11:10.870Z,19.52
2018-09-03T05:13:37.876Z,18.50
2018-09-03T05:16:04.843Z,18.42
2018-09-03T05:18:31.801Z,18.80
2018-09-03T05:20:58.762Z,17.27
2018-09-03T05:23:25.721Z,17.57
2018-09-03T05:25:52.723Z,36.77
2018-09-03T05:28:19.662Z,45.48
2018-09-03T05:30:46.642Z,21.17
2018-09-03T05:33:13.663Z,19.57
2018-09-03T05:35:40.671Z,20.12
2018-09-03T05:38:07.634Z,19.62
2018-09-03T05:40:34.644Z,19.27
2018-09-03T05:43:01.666Z,20.40
2018-09-03T05:45:28.592Z,20.80
2018-09-03T05:47:56.355Z,20.43
2018-09-03T05:50:23.418Z,19.92
2018-09-03T05:52:50.275Z,20.57
2018-09-03T05:55:17.273Z,19.63
2018-09-03T05:57:44.265Z,18.98
2018-09-03T06:00:11.227Z,17.65
2018-09-03T06:02:38.213Z,17.98
2018-09-03T06:05:05.548Z,18.67
2018-09-03T06:07:32.495Z,19.57
2018-09-03T06:09:59.472Z,19.13
2018-09-03T06:12:26.435Z,19.55
2018-09-03T06:14:53.398Z,19.95
2018-09-03T06:17:20.430Z,20.43
2018-09-03T06:19:47.402Z,18.45
2018-09-03T06:22:14.353Z,21.12
2018-09-03T06:24:41.378Z,21.33
2018-09-03T06:27:08.335Z,19.70
2018-09-03T06:29:35.286Z,20.50
2018-09-03T06:32:02.276Z,23.63
2018-09-03T06:34:30.680Z,20.80
2018-09-03T06:36:57.780Z,20.20
2018-09-03T06:39:24.758Z,22.05
2018-09-03T06:41:51.822Z,18.80
2018-09-03T06:44:18.778Z,22.22
2018-09-03T06:46:45.855Z,20.62
2018-09-03T06:49:13.315Z,22.93
2018-09-03T06:51:40.291Z,25.02
2018-09-03T06:54:07.276Z,28.20
2018-09-03T06:56:34.234Z,22.77
2018-09-03T06:59:01.314Z,25.35
2018-09-03T07:01:28.291Z,25.05
2018-09-03T07:03:55.280Z,22.07
2018-09-03T07:06:22.247Z,21.75
2018-09-03T07:08:49.251Z,21.40
2018-09-03T07:11:16.199Z,21.50
2018-09-03T07:13:43.171Z,22.25
2018-09-03T07:16:10.223Z,23.52
2018-09-03T07:18:37.277Z,23.65
2018-09-03T07:21:04.350Z,23.50
2018-09-03T07:23:31.321Z,24.87
2018-09-03T07:25:59.615Z,25.35
2018-09-03T07:28:26.828Z,24.82
2018-09-03T07:30:53.807Z,24.20
2018-09-03T07:33:21.134Z,26.80
2018-09-03T07:35:48.357Z,24.12
2018-09-03T07:38:15.337Z,26.93
2018-09-03T07:40:42.317Z,24.98
2018-09-03T07:43:11.148Z,27.80
2018-09-03T07:45:38.120Z,29.55
2018-09-03T07:48:05.116Z,23.98
2018-09-03T07:50:32.594Z,24.60
2018-09-03T07:52:59.574Z,25.35
2018-09-03T07:55:26.533Z,24.18
2018-09-03T07:57:53.565Z,23.27
2018-09-03T08:00:20.522Z,24.20
2018-09-03T08:02:47.492Z,23.50
2018-09-03T08:05:15.833Z,25.23
2018-09-03T08:07:42.294Z,21.27
2018-09-03T08:10:09.577Z,24.95
2018-09-03T08:12:36.879Z,27.27
2018-09-03T08:15:04.255Z,24.57
2018-09-03T08:17:31.218Z,27.27
2018-09-03T08:19:58.212Z,24.92
2018-09-03T08:22:25.130Z,25.30
2018-09-03T08:24:52.095Z,26.07
2018-09-03T08:27:19.026Z,26.68
2018-09-03T08:29:46.003Z,25.60
2018-09-03T08:32:12.982Z,26.90
2018-09-03T08:34:39.979Z,30.52
2018-09-03T08:37:06.938Z,27.22
2018-09-03T08:39:33.890Z,29.07
2018-09-03T08:42:00.860Z,27.80
2018-09-03T08:44:27.838Z,28.30
2018-09-03T08:46:55.063Z,30.05
2018-09-03T08:49:22.031Z,26.87
2018-09-03T08:51:49.278Z,25.55
2018-09-03T08:54:16.234Z,28.07
2018-09-03T08:56:43.205Z,27.58
2018-09-03T08:59:10.167Z,28.42
2018-09-03T09:01:37.110Z,26.40
2018-09-03T09:04:04.061Z,27.80
2018-09-03T09:06:31.024Z,26.68
2018-09-03T09:08:58.002Z,25.55
2018-09-03T09:11:24.978Z,25.45
2018-09-03T09:13:51.953Z,29.92
2018-09-03T09:16:18.963Z,26.15
2018-09-03T09:18:45.951Z,27.85
2018-09-03T09:21:12.916Z,27.52
2018-09-03T09:23:39.850Z,23.03
2018-09-03T09:26:06.842Z,27.27
2018-09-03T09:28:33.811Z,28.73
2018-09-03T09:31:00.854Z,25.00
2018-09-03T09:33:27.830Z,26.82
2018-09-03T09:35:54.815Z,23.80
2018-09-03T09:38:21.751Z,23.83
2018-09-03T09:40:48.726Z,24.75
2018-09-03T09:43:15.693Z,23.20
2018-09-03T09:45:42.649Z,22.20
2018-09-03T09:48:09.647Z,22.85
2018-09-03T09:50:36.615Z,24.80
2018-09-03T09:53:04.240Z,24.10
2018-09-03T09:55:31.203Z,21.25
2018-09-03T09:57:58.208Z,21.68
2018-09-03T10:00:30.943Z,23.50
2018-09-03T10:02:57.929Z,21.95
2018-09-03T10:05:24.922Z,19.95
2018-09-03T10:07:51.889Z,18.67
2018-09-03T10:10:18.900Z,21.70
2018-09-03T10:12:45.862Z,19.48
2018-09-03T10:15:12.810Z,18.95
2018-09-03T10:17:39.759Z,19.27
2018-09-03T10:20:06.764Z,18.27
2018-09-03T10:22:33.733Z,17.60
2018-09-03T10:25:00.714Z,18.57
2018-09-03T10:27:27.735Z,19.25
2018-09-03T10:29:54.697Z,19.23
2018-09-03T10:32:22.087Z,17.85
2018-09-03T10:34:49.150Z,16.40
2018-09-03T10:37:16.111Z,16.30
2018-09-03T10:39:43.098Z,16.93
2018-09-03T10:42:10.066Z,17.02
2018-09-03T10:44:37.039Z,18.07
2018-09-03T10:47:04.145Z,17.32
2018-09-03T10:49:31.050Z,17.80
2018-09-03T10:51:58.043Z,16.65
2018-09-03T10:54:25.587Z,16.27
2018-09-03T10:56:53.440Z,16.50
2018-09-03T10:59:20.591Z,17.17
2018-09-03T11:01:47.667Z,16.90
2018-09-03T11:04:14.666Z,15.88
2018-09-03T11:06:41.630Z,29.13
2018-09-03T11:09:09.971Z,19.73
2018-09-03T11:11:37.087Z,19.15
2018-09-03T11:14:04.387Z,16.32
2018-09-03T11:16:31.372Z,15.77
2018-09-03T11:18:58.348Z,16.67
2018-09-03T11:21:25.446Z,14.93
2018-09-03T11:23:52.280Z,16.10
2018-09-03T11:26:19.260Z,15.80
2018-09-03T11:28:46.235Z,15.83
2018-09-03T11:31:13.175Z,15.80
2018-09-03T11:33:40.216Z,14.90
2018-09-03T11:36:07.170Z,15.58
2018-09-03T11:38:34.169Z,15.00
2018-09-03T11:41:01.191Z,14.73
2018-09-03T11:43:28.151Z,15.00
2018-09-03T11:45:55.140Z,38.28
2018-09-03T11:48:22.148Z,29.75
2018-09-03T11:50:49.130Z,19.30
2018-09-03T11:53:16.152Z,22.22
2018-09-03T11:55:43.342Z,21.25
2018-09-03T11:58:10.368Z,17.05
2018-09-03T12:00:37.416Z,16.90
2018-09-03T12:03:04.544Z,17.48
2018-09-03T12:05:31.528Z,17.95
2018-09-03T12:07:58.519Z,18.02
2018-09-03T12:10:25.547Z,18.57
2018-09-03T12:12:52.516Z,17.52
2018-09-03T12:15:26.920Z,17.37
2018-09-03T12:17:53.947Z,18.42
2018-09-03T12:20:20.929Z,17.25
2018-09-03T12:22:47.932Z,17.10
2018-09-03T12:25:14.978Z,17.07
2018-09-03T12:27:41.966Z,15.63
2018-09-03T12:30:08.957Z,17.00
2018-09-03T12:32:36.086Z,15.47
2018-09-03T12:35:03.074Z,15.80
2018-09-03T12:37:30.166Z,17.05
2018-09-03T12:39:57.158Z,17.15
2018-09-03T12:42:24.122Z,16.52
2018-09-03T12:44:51.133Z,15.88
2018-09-03T12:47:18.084Z,15.43
2018-09-03T12:49:45.771Z,16.50
2018-09-03T12:52:12.779Z,15.40
2018-09-03T12:54:39.735Z,15.98
2018-09-03T12:57:07.420Z,14.03
2018-09-03T12:59:34.460Z,12.50
2018-09-03T13:02:01.404Z,12.88
2018-09-03T13:04:28.387Z,11.80
2018-09-03T13:06:55.385Z,13.50
2018-09-03T13:09:22.376Z,12.30
2018-09-03T13:11:49.350Z,11.75
2018-09-03T13:14:16.339Z,11.30
2018-09-03T13:16:43.296Z,11.65
2018-09-03T13:19:10.264Z,12.55
2018-09-03T13:21:37.258Z,11.57
2018-09-03T13:24:04.901Z,12.03
2018-09-03T13:26:31.883Z,11.48
2018-09-03T13:28:58.857Z,12.10
2018-09-03T13:31:25.903Z,11.78
2018-09-03T13:33:52.858Z,10.45
2018-09-03T13:36:19.915Z,10.55
2018-09-03T13:38:46.881Z,11.57
2018-09-03T13:41:13.845Z,11.18
2018-09-03T13:43:40.921Z,9.83
2018-09-03T13:46:08.049Z,8.90
2018-09-03T13:48:35.081Z,9.88
2018-09-03T13:51:02.091Z,10.00
2018-09-03T13:53:29.055Z,9.88
2018-09-03T13:55:56.018Z,9.23
2018-09-03T13:58:23.274Z,9.38
2018-09-03T14:00:50.345Z,10.07
2018-09-03T14:03:17.345Z,11.55
2018-09-03T14:05:44.401Z,10.23
2018-09-03T14:08:11.427Z,8.78
2018-09-03T14:10:38.396Z,10.18
2018-09-03T14:13:05.533Z,8.38
2018-09-03T14:15:32.567Z,8.00
2018-09-03T14:17:59.548Z,6.90
2018-09-03T14:20:26.562Z,7.28
2018-09-03T14:22:53.863Z,6.78
2018-09-03T14:25:20.802Z,6.87
2018-09-03T14:27:47.988Z,7.28
2018-09-03T14:30:15.074Z,7.72
2018-09-03T14:32:42.025Z,8.00
2018-09-03T14:35:09.035Z,7.42
2018-09-03T14:37:36.132Z,7.87
2018-09-03T14:40:03.247Z,7.95
2018-09-03T14:42:30.336Z,7.20
2018-09-03T14:44:57.351Z,10.55
2018-09-03T14:47:24.375Z,11.28
2018-09-03T14:49:51.355Z,15.40
2018-09-03T14:52:18.341Z,6.75
2018-09-03T14:54:45.461Z,6.58
2018-09-03T14:57:12.489Z,6.62
2018-09-03T14:59:40.223Z,6.40
2018-09-03T15:02:07.222Z,6.05
2018-09-03T15:04:34.215Z,6.50
2018-09-03T15:07:01.206Z,8.18
2018-09-03T15:09:28.418Z,10.25
2018-09-03T15:11:55.514Z,10.50
2018-09-03T15:14:22.486Z,6.17
2018-09-03T15:16:49.469Z,6.62
2018-09-03T15:19:16.558Z,16.00
2018-09-03T15:21:43.736Z,10.98
2018-09-03T15:24:10.727Z,8.63
2018-09-03T15:26:37.753Z,6.30
2018-09-03T15:29:04.721Z,7.00
2018-09-03T15:31:31.688Z,6.77
2018-09-03T15:33:58.670Z,6.70
2018-09-03T15:36:25.985Z,6.40
2018-09-03T15:38:52.814Z,6.85
2018-09-03T15:41:19.803Z,6.78
2018-09-03T15:43:46.784Z,6.10
2018-09-03T15:46:13.772Z,6.92
2018-09-03T15:48:41.082Z,6.40
2018-09-03T15:51:08.116Z,6.08
2018-09-03T15:53:35.096Z,6.37
2018-09-03T15:56:02.715Z,5.65
2018-09-03T15:58:30.045Z,14.43
2018-09-03T16:00:57.638Z,17.23
2018-09-03T16:03:24.622Z,6.05
2018-09-03T16:05:51.610Z,5.47
2018-09-03T16:08:18.659Z,6.08
2018-09-03T16:10:45.650Z,6.58
2018-09-03T16:13:12.626Z,5.60
2018-09-03T16:15:40.083Z,5.78
2018-09-03T16:18:07.199Z,5.77
2018-09-03T16:20:34.205Z,5.10
2018-09-03T16:23:01.195Z,5.35
2018-09-03T16:25:28.226Z,5.25
2018-09-03T16:27:55.227Z,5.12
2018-09-03T16:30:22.199Z,5.22
2018-09-03T16:32:49.217Z,5.00
2018-09-03T16:35:16.209Z,4.90
2018-09-03T16:37:43.176Z,5.00
2018-09-03T16:40:10.276Z,5.35
2018-09-03T16:42:37.280Z,4.90
2018-09-03T16:45:04.263Z,4.92
2018-09-03T16:47:31.302Z,4.85
2018-09-03T16:49:58.281Z,5.00
2018-09-03T16:52:25.257Z,5.27
2018-09-03T16:54:52.296Z,5.27
2018-09-03T16:57:20.765Z,5.12
2018-09-03T16:59:47.753Z,5.37
2018-09-03T17:02:15.231Z,5.92
2018-09-03T17:04:42.226Z,4.95
2018-09-03T17:07:09.195Z,5.12
2018-09-03T17:09:36.212Z,4.80
2018-09-03T17:12:03.182Z,5.00
2018-09-03T17:14:30.744Z,4.60
2018-09-03T17:16:57.799Z,5.00
2018-09-03T17:19:24.796Z,5.20
2018-09-03T17:21:51.775Z,5.08
2018-09-03T17:24:18.763Z,5.35
2018-09-03T17:26:46.119Z,65.00
2018-09-03T17:29:13.059Z,24.12
2018-09-03T17:31:40.039Z,17.35
2018-09-03T17:36:47.159Z,5.90
2018-09-03T17:39:14.142Z,5.35
2018-09-03T17:41:41.122Z,5.40
2018-09-03T17:44:08.131Z,5.65
2018-09-03T17:46:35.114Z,5.60
2018-09-03T17:49:02.103Z,5.40
2018-09-03T17:51:29.113Z,5.20
2018-09-03T17:53:56.091Z,5.12
2018-09-03T17:56:23.143Z,5.60
2018-09-03T17:58:50.190Z,5.42
2018-09-03T18:01:17.167Z,6.03
2018-09-03T18:03:44.678Z,6.33
2018-09-03T18:06:11.733Z,6.15
2018-09-03T18:08:38.720Z,6.97
2018-09-03T18:11:05.718Z,7.12
2018-09-03T18:13:32.809Z,6.50
2018-09-03T18:15:59.746Z,37.35
2018-09-03T18:18:26.951Z,24.82
2018-09-03T18:20:53.954Z,10.35
2018-09-03T18:23:20.957Z,7.55
2018-09-03T18:25:47.946Z,6.67
2018-09-03T18:28:14.935Z,6.77
2018-09-03T18:30:41.904Z,6.70
2018-09-03T18:33:08.936Z,6.72
2018-09-03T18:35:35.943Z,6.75
2018-09-03T18:38:02.934Z,7.08
2018-09-03T18:40:29.924Z,7.62
2018-09-03T18:42:56.954Z,7.25
2018-09-03T18:45:23.974Z,7.75
2018-09-03T18:47:50.955Z,8.03
2018-09-03T18:50:17.941Z,8.07
2018-09-03T18:52:44.926Z,7.80
2018-09-03T18:55:11.914Z,7.67
2018-09-03T18:57:38.939Z,8.10
2018-09-03T19:00:06.509Z,8.48
2018-09-03T19:02:33.480Z,8.10
2018-09-03T19:05:00.837Z,8.93
2018-09-03T19:07:27.830Z,8.50
2018-09-03T19:09:54.921Z,8.53
2018-09-03T19:12:21.901Z,9.20
2018-09-03T19:14:48.909Z,8.57
2018-09-03T19:17:15.900Z,8.70
2018-09-03T19:19:42.905Z,7.75
2018-09-03T19:22:09.956Z,8.30
2018-09-03T19:24:36.872Z,7.95
2018-09-03T19:27:04.478Z,8.15
2018-09-03T19:29:31.483Z,8.15
2018-09-03T19:31:58.491Z,8.45
2018-09-03T19:34:25.506Z,8.58
2018-09-03T19:36:52.489Z,8.35
2018-09-03T19:39:19.462Z,8.88
2018-09-03T19:41:46.461Z,8.55
2018-09-03T19:44:13.446Z,9.73
2018-09-03T19:46:40.455Z,8.70
2018-09-03T19:49:07.800Z,9.37
2018-09-03T19:51:34.807Z,8.80
2018-09-03T19:54:01.796Z,8.88
2018-09-03T19:56:28.799Z,11.28
2018-09-03T19:58:55.784Z,8.33
2018-09-03T20:01:22.773Z,7.67
2018-09-03T20:03:49.762Z,8.30
2018-09-03T20:06:17.336Z,8.98
2018-09-03T20:08:44.275Z,8.40
2018-09-03T20:11:11.262Z,8.20
2018-09-03T20:13:38.236Z,8.50
2018-09-03T20:16:05.292Z,7.80
2018-09-03T20:18:32.310Z,8.45
2018-09-03T20:20:59.358Z,8.58
2018-09-03T20:23:26.494Z,8.23
2018-09-03T20:25:53.490Z,8.63
2018-09-03T20:28:20.450Z,8.65
2018-09-03T20:30:47.474Z,9.28
2018-09-03T20:33:14.482Z,8.80
2018-09-03T20:35:41.454Z,8.70
2018-09-03T20:38:08.454Z,8.68
2018-09-03T20:40:35.906Z,9.40
2018-09-03T20:43:02.959Z,9.13
2018-09-03T20:45:29.936Z,9.78
2018-09-03T20:47:56.955Z,9.13
2018-09-03T20:50:23.961Z,9.40
2018-09-03T20:52:50.947Z,11.30
2018-09-03T20:55:17.944Z,11.03
2018-09-03T20:57:44.904Z,9.70
2018-09-03T21:00:11.886Z,10.08
2018-09-03T21:02:38.903Z,11.15
2018-09-03T21:05:06.023Z,11.12
2018-09-03T21:07:33.454Z,11.15
2018-09-03T21:10:00.450Z,11.18
2018-09-03T21:12:27.429Z,10.43
2018-09-03T21:14:54.432Z,10.68
2018-09-03T21:17:21.475Z,10.35
2018-09-03T21:19:48.454Z,10.00
2018-09-03T21:22:15.426Z,8.63
2018-09-03T21:24:42.510Z,8.50
2018-09-03T21:27:09.578Z,8.80
2018-09-03T21:29:36.672Z,9.53
2018-09-03T21:32:03.869Z,9.40
2018-09-03T21:34:30.925Z,9.43
2018-09-03T21:36:59.033Z,10.23
2018-09-03T21:39:26.071Z,9.90
2018-09-03T21:41:53.077Z,10.40
2018-09-03T21:44:20.184Z,9.90
2018-09-03T21:46:48.575Z,10.63
2018-09-03T21:49:16.435Z,9.98
2018-09-03T21:51:43.426Z,10.32
2018-09-03T21:54:10.491Z,10.63
2018-09-03T21:56:37.484Z,9.93
2018-09-03T21:59:04.543Z,10.00
2018-09-03T22:01:31.692Z,10.03
2018-09-03T22:03:58.697Z,10.38
2018-09-03T22:06:25.779Z,9.35
2018-09-03T22:08:53.249Z,10.53
2018-09-03T22:11:20.215Z,31.82
2018-09-03T22:13:47.211Z,12.10
2018-09-03T22:16:14.251Z,9.58
2018-09-03T22:18:41.236Z,11.80
2018-09-03T22:21:08.458Z,10.77
2018-09-03T22:23:35.783Z,10.95
2018-09-03T22:26:02.918Z,9.75
2018-09-03T22:28:29.975Z,9.75
2018-09-03T22:30:57.045Z,9.58
2018-09-03T22:33:24.079Z,10.88
2018-09-03T22:35:51.118Z,10.65
2018-09-03T22:38:18.203Z,10.23
2018-09-03T22:40:45.223Z,9.68
2018-09-03T22:43:12.309Z,10.18
2018-09-03T22:45:39.339Z,10.25
2018-09-03T22:48:06.422Z,9.90
2018-09-03T22:50:33.487Z,10.53
2018-09-03T22:53:00.522Z,10.38
2018-09-03T22:55:27.550Z,11.12
2018-09-03T22:57:54.591Z,11.20
2018-09-03T23:00:21.614Z,11.10
2018-09-03T23:02:48.661Z,10.85
2018-09-03T23:05:15.703Z,11.63
2018-09-03T23:07:42.730Z,10.85
2018-09-03T23:10:10.172Z,10.78
2018-09-03T23:12:37.148Z,10.40
2018-09-03T23:15:04.632Z,11.03
2018-09-03T23:17:31.812Z,11.25
2018-09-03T23:19:58.800Z,10.90
2018-09-03T23:22:25.805Z,10.50
2018-09-03T23:24:53.313Z,10.65
2018-09-03T23:27:20.315Z,10.50
2018-09-03T23:29:47.353Z,11.12
2018-09-03T23:32:14.371Z,10.53
2018-09-03T23:34:41.400Z,10.80
2018-09-03T23:37:08.428Z,10.68
2018-09-03T23:39:35.446Z,11.35
2018-09-03T23:42:02.520Z,10.58
2018-09-03T23:44:29.646Z,11.60
2018-09-03T23:46:56.758Z,10.75
2018-09-03T23:49:23.795Z,11.25
2018-09-03T23:51:50.880Z,11.75
2018-09-03T23:54:17.891Z,11.53
2018-09-03T23:56:44.975Z,9.85
2018-09-03T23:59:12.003Z,10.05
